sensor_id;sensor_type;location;lat;lon;timestamp;temperature;humidity
3548;DHT22;1788;49.400;11.092;2022-10-16T00:01:59;18.00;75.10
3548;DHT22;1788;49.400;11.092;2022-10-16T00:04:25;18.00;75.00
3548;DHT22;1788;49.400;11.092;2022-10-16T00:06:52;17.90;75.00
3548;DHT22;1788;49.400;11.092;2022-10-16T00:09:19;17.90;75.10
3548;DHT22;1788;49.400;11.092;2022-10-16T00:11:46;17.90;75.10
3548;DHT22;1788;49.400;11.092;2022-10-16T00:14:14;17.90;75.10
3548;DHT22;1788;49.400;11.092;2022-10-16T00:16:39;17.90;75.20
3548;DHT22;1788;49.400;11.092;2022-10-16T00:19:06;17.90;75.20
3548;DHT22;1788;49.400;11.092;2022-10-16T00:21:33;18.00;75.40
3548;DHT22;1788;49.400;11.092;2022-10-16T00:24:01;18.00;75.30
3548;DHT22;1788;49.400;11.092;2022-10-16T00:26:28;18.00;75.80
3548;DHT22;1788;49.400;11.092;2022-10-16T00:28:54;18.00;75.30
3548;DHT22;1788;49.400;11.092;2022-10-16T00:31:21;18.00;75.20
3548;DHT22;1788;49.400;11.092;2022-10-16T00:33:47;18.00;75.20
3548;DHT22;1788;49.400;11.092;2022-10-16T00:36:15;18.00;75.20
3548;DHT22;1788;49.400;11.092;2022-10-16T00:38:41;18.00;75.40
3548;DHT22;1788;49.400;11.092;2022-10-16T00:46:02;18.00;75.40
3548;DHT22;1788;49.400;11.092;2022-10-16T00:48:28;18.00;75.40
3548;DHT22;1788;49.400;11.092;2022-10-16T00:50:56;18.00;75.50
3548;DHT22;1788;49.400;11.092;2022-10-16T00:53:22;18.00;75.40
3548;DHT22;1788;49.400;11.092;2022-10-16T00:55:49;17.90;75.40
3548;DHT22;1788;49.400;11.092;2022-10-16T00:58:15;17.90;75.50
3548;DHT22;1788;49.400;11.092;2022-10-16T01:00:42;17.90;75.50
3548;DHT22;1788;49.400;11.092;2022-10-16T01:08:07;17.80;75.90
3548;DHT22;1788;49.400;11.092;2022-10-16T01:10:31;17.80;75.90
3548;DHT22;1788;49.400;11.092;2022-10-16T01:27:38;17.70;76.40
3548;DHT22;1788;49.400;11.092;2022-10-16T01:34:59;17.70;76.60
3548;DHT22;1788;49.400;11.092;2022-10-16T01:39:53;17.70;76.80
3548;DHT22;1788;49.400;11.092;2022-10-16T01:44:47;17.70;76.90
3548;DHT22;1788;49.400;11.092;2022-10-16T01:47:13;17.60;76.80
3548;DHT22;1788;49.400;11.092;2022-10-16T01:49:39;17.60;76.80
3548;DHT22;1788;49.400;11.092;2022-10-16T01:52:09;17.60;76.90
3548;DHT22;1788;49.400;11.092;2022-10-16T01:54:34;17.60;76.90
3548;DHT22;1788;49.400;11.092;2022-10-16T01:57:00;17.70;77.00
3548;DHT22;1788;49.400;11.092;2022-10-16T01:59:27;17.60;77.00
3548;DHT22;1788;49.400;11.092;2022-10-16T02:01:54;17.60;76.90
3548;DHT22;1788;49.400;11.092;2022-10-16T02:06:47;17.60;77.10
3548;DHT22;1788;49.400;11.092;2022-10-16T02:09:14;17.60;78.00
3548;DHT22;1788;49.400;11.092;2022-10-16T02:11:40;17.60;77.30
3548;DHT22;1788;49.400;11.092;2022-10-16T02:14:07;17.60;77.30
3548;DHT22;1788;49.400;11.092;2022-10-16T02:16:35;17.60;77.30
3548;DHT22;1788;49.400;11.092;2022-10-16T02:19:01;17.60;76.80
3548;DHT22;1788;49.400;11.092;2022-10-16T02:28:48;17.60;77.40
3548;DHT22;1788;49.400;11.092;2022-10-16T02:31:16;17.60;77.40
3548;DHT22;1788;49.400;11.092;2022-10-16T02:41:10;17.60;77.40
3548;DHT22;1788;49.400;11.092;2022-10-16T02:46:05;17.60;77.50
3548;DHT22;1788;49.400;11.092;2022-10-16T02:48:32;17.60;77.50
3548;DHT22;1788;49.400;11.092;2022-10-16T02:50:58;17.60;77.60
3548;DHT22;1788;49.400;11.092;2022-10-16T02:53:25;17.50;77.60
3548;DHT22;1788;49.400;11.092;2022-10-16T02:55:51;17.60;77.80
3548;DHT22;1788;49.400;11.092;2022-10-16T02:58:18;17.50;77.70
3548;DHT22;1788;49.400;11.092;2022-10-16T03:00:45;17.50;77.70
3548;DHT22;1788;49.400;11.092;2022-10-16T03:03:12;17.60;77.90
3548;DHT22;1788;49.400;11.092;2022-10-16T03:05:39;17.50;77.70
3548;DHT22;1788;49.400;11.092;2022-10-16T03:08:06;17.50;77.70
3548;DHT22;1788;49.400;11.092;2022-10-16T03:13:00;17.50;77.80
3548;DHT22;1788;49.400;11.092;2022-10-16T03:15:26;17.60;77.80
3548;DHT22;1788;49.400;11.092;2022-10-16T03:17:53;17.60;77.80
3548;DHT22;1788;49.400;11.092;2022-10-16T03:20:20;17.60;77.80
3548;DHT22;1788;49.400;11.092;2022-10-16T03:22:46;17.60;77.80
3548;DHT22;1788;49.400;11.092;2022-10-16T03:25:14;17.60;77.80
3548;DHT22;1788;49.400;11.092;2022-10-16T03:27:41;17.60;77.70
3548;DHT22;1788;49.400;11.092;2022-10-16T03:32:36;17.60;77.60
3548;DHT22;1788;49.400;11.092;2022-10-16T03:35:02;17.60;77.70
3548;DHT22;1788;49.400;11.092;2022-10-16T03:37:29;17.60;77.70
3548;DHT22;1788;49.400;11.092;2022-10-16T03:39:56;17.60;77.70
3548;DHT22;1788;49.400;11.092;2022-10-16T03:42:22;17.60;77.60
3548;DHT22;1788;49.400;11.092;2022-10-16T03:44:49;17.60;77.70
3548;DHT22;1788;49.400;11.092;2022-10-16T03:47:15;17.60;77.70
3548;DHT22;1788;49.400;11.092;2022-10-16T03:49:43;17.60;77.80
3548;DHT22;1788;49.400;11.092;2022-10-16T03:52:09;17.60;77.70
3548;DHT22;1788;49.400;11.092;2022-10-16T03:54:37;17.60;77.20
3548;DHT22;1788;49.400;11.092;2022-10-16T03:57:03;17.60;77.70
3548;DHT22;1788;49.400;11.092;2022-10-16T03:59:30;17.60;77.70
3548;DHT22;1788;49.400;11.092;2022-10-16T04:01:57;17.60;77.70
3548;DHT22;1788;49.400;11.092;2022-10-16T04:04:24;17.60;77.70
3548;DHT22;1788;49.400;11.092;2022-10-16T04:06:51;17.60;77.70
3548;DHT22;1788;49.400;11.092;2022-10-16T04:09:18;17.60;77.70
3548;DHT22;1788;49.400;11.092;2022-10-16T04:11:45;17.70;77.70
3548;DHT22;1788;49.400;11.092;2022-10-16T04:14:12;17.60;77.60
3548;DHT22;1788;49.400;11.092;2022-10-16T04:16:39;17.60;77.50
3548;DHT22;1788;49.400;11.092;2022-10-16T04:19:06;17.60;77.60
3548;DHT22;1788;49.400;11.092;2022-10-16T04:21:33;17.60;77.60
3548;DHT22;1788;49.400;11.092;2022-10-16T04:24:00;17.60;77.60
3548;DHT22;1788;49.400;11.092;2022-10-16T04:26:26;17.60;77.70
3548;DHT22;1788;49.400;11.092;2022-10-16T04:28:53;17.60;77.70
3548;DHT22;1788;49.400;11.092;2022-10-16T04:31:20;17.60;77.80
3548;DHT22;1788;49.400;11.092;2022-10-16T04:33:47;17.60;77.80
3548;DHT22;1788;49.400;11.092;2022-10-16T04:36:14;17.60;78.50
3548;DHT22;1788;49.400;11.092;2022-10-16T04:38:40;17.60;77.80
3548;DHT22;1788;49.400;11.092;2022-10-16T04:41:07;17.60;77.80
3548;DHT22;1788;49.400;11.092;2022-10-16T04:43:33;17.60;77.80
3548;DHT22;1788;49.400;11.092;2022-10-16T04:46:00;17.60;77.80
3548;DHT22;1788;49.400;11.092;2022-10-16T04:48:27;17.60;77.80
3548;DHT22;1788;49.400;11.092;2022-10-16T04:50:54;17.60;77.80
3548;DHT22;1788;49.400;11.092;2022-10-16T04:53:20;17.60;77.80
3548;DHT22;1788;49.400;11.092;2022-10-16T04:55:47;17.60;77.80
3548;DHT22;1788;49.400;11.092;2022-10-16T04:58:13;17.50;77.70
3548;DHT22;1788;49.400;11.092;2022-10-16T05:00:40;17.50;77.80
3548;DHT22;1788;49.400;11.092;2022-10-16T05:03:07;17.50;77.90
3548;DHT22;1788;49.400;11.092;2022-10-16T05:05:35;17.50;77.90
3548;DHT22;1788;49.400;11.092;2022-10-16T05:08:01;17.50;77.80
3548;DHT22;1788;49.400;11.092;2022-10-16T05:10:28;17.50;77.80
3548;DHT22;1788;49.400;11.092;2022-10-16T05:12:54;17.50;77.90
3548;DHT22;1788;49.400;11.092;2022-10-16T05:15:22;17.50;77.90
3548;DHT22;1788;49.400;11.092;2022-10-16T05:17:51;17.50;77.90
3548;DHT22;1788;49.400;11.092;2022-10-16T05:20:15;17.60;78.30
3548;DHT22;1788;49.400;11.092;2022-10-16T05:22:41;17.60;77.90
3548;DHT22;1788;49.400;11.092;2022-10-16T05:25:10;17.60;77.80
3548;DHT22;1788;49.400;11.092;2022-10-16T05:27:36;17.60;77.70
3548;DHT22;1788;49.400;11.092;2022-10-16T05:30:03;17.60;77.80
3548;DHT22;1788;49.400;11.092;2022-10-16T05:32:30;17.60;77.80
3548;DHT22;1788;49.400;11.092;2022-10-16T05:34:56;17.60;77.80
3548;DHT22;1788;49.400;11.092;2022-10-16T05:37:24;17.60;77.70
3548;DHT22;1788;49.400;11.092;2022-10-16T05:39:50;17.50;77.60
3548;DHT22;1788;49.400;11.092;2022-10-16T05:42:18;17.50;78.50
3548;DHT22;1788;49.400;11.092;2022-10-16T05:44:44;17.50;77.70
3548;DHT22;1788;49.400;11.092;2022-10-16T05:47:12;17.50;77.70
3548;DHT22;1788;49.400;11.092;2022-10-16T05:49:38;17.50;77.60
3548;DHT22;1788;49.400;11.092;2022-10-16T05:52:05;17.50;77.70
3548;DHT22;1788;49.400;11.092;2022-10-16T05:54:31;17.50;77.70
3548;DHT22;1788;49.400;11.092;2022-10-16T05:56:58;17.50;77.70
3548;DHT22;1788;49.400;11.092;2022-10-16T05:59:25;17.60;77.80
3548;DHT22;1788;49.400;11.092;2022-10-16T06:01:53;17.60;77.70
3548;DHT22;1788;49.400;11.092;2022-10-16T06:04:20;17.60;77.70
3548;DHT22;1788;49.400;11.092;2022-10-16T06:06:47;17.60;77.70
3548;DHT22;1788;49.400;11.092;2022-10-16T06:09:13;17.60;77.70
3548;DHT22;1788;49.400;11.092;2022-10-16T06:11:40;17.60;77.70
3548;DHT22;1788;49.400;11.092;2022-10-16T06:14:07;17.60;77.60
3548;DHT22;1788;49.400;11.092;2022-10-16T06:16:35;17.60;77.50
3548;DHT22;1788;49.400;11.092;2022-10-16T06:19:02;17.70;77.50
3548;DHT22;1788;49.400;11.092;2022-10-16T06:21:28;17.70;77.50
3548;DHT22;1788;49.400;11.092;2022-10-16T06:23:55;17.70;77.50
3548;DHT22;1788;49.400;11.092;2022-10-16T06:26:22;17.70;77.50
3548;DHT22;1788;49.400;11.092;2022-10-16T06:28:48;17.70;77.50
3548;DHT22;1788;49.400;11.092;2022-10-16T06:31:16;17.80;77.50
3548;DHT22;1788;49.400;11.092;2022-10-16T06:33:42;17.80;77.50
3548;DHT22;1788;49.400;11.092;2022-10-16T06:36:11;17.80;78.20
3548;DHT22;1788;49.400;11.092;2022-10-16T06:38:37;17.80;77.40
3548;DHT22;1788;49.400;11.092;2022-10-16T06:41:04;17.90;77.40
3548;DHT22;1788;49.400;11.092;2022-10-16T06:43:31;17.90;77.40
3548;DHT22;1788;49.400;11.092;2022-10-16T06:45:57;18.00;77.50
3548;DHT22;1788;49.400;11.092;2022-10-16T06:48:23;18.00;77.40
3548;DHT22;1788;49.400;11.092;2022-10-16T06:53:17;18.20;77.40
3548;DHT22;1788;49.400;11.092;2022-10-16T06:55:44;18.20;77.40
3548;DHT22;1788;49.400;11.092;2022-10-16T06:58:11;18.30;77.20
3548;DHT22;1788;49.400;11.092;2022-10-16T07:00:37;18.40;77.00
3548;DHT22;1788;49.400;11.092;2022-10-16T07:03:04;18.40;76.70
3548;DHT22;1788;49.400;11.092;2022-10-16T07:05:30;18.40;76.60
3548;DHT22;1788;49.400;11.092;2022-10-16T07:07:57;18.50;76.60
3548;DHT22;1788;49.400;11.092;2022-10-16T07:10:24;18.50;76.50
3548;DHT22;1788;49.400;11.092;2022-10-16T07:12:50;18.50;76.40
3548;DHT22;1788;49.400;11.092;2022-10-16T07:15:17;18.50;76.30
3548;DHT22;1788;49.400;11.092;2022-10-16T07:17:44;18.50;76.20
3548;DHT22;1788;49.400;11.092;2022-10-16T07:20:10;18.60;76.20
3548;DHT22;1788;49.400;11.092;2022-10-16T07:22:37;18.60;76.10
3548;DHT22;1788;49.400;11.092;2022-10-16T07:25:04;18.50;75.80
3548;DHT22;1788;49.400;11.092;2022-10-16T07:27:31;18.50;75.80
3548;DHT22;1788;49.400;11.092;2022-10-16T07:29:57;18.50;75.80
3548;DHT22;1788;49.400;11.092;2022-10-16T07:32:24;18.50;75.80
3548;DHT22;1788;49.400;11.092;2022-10-16T07:34:51;18.50;75.70
3548;DHT22;1788;49.400;11.092;2022-10-16T07:37:18;18.50;75.80
3548;DHT22;1788;49.400;11.092;2022-10-16T07:39:45;18.50;75.80
3548;DHT22;1788;49.400;11.092;2022-10-16T07:42:12;18.50;75.90
3548;DHT22;1788;49.400;11.092;2022-10-16T07:44:39;18.50;75.60
3548;DHT22;1788;49.400;11.092;2022-10-16T07:47:05;18.50;75.60
3548;DHT22;1788;49.400;11.092;2022-10-16T07:49:32;18.50;75.60
3548;DHT22;1788;49.400;11.092;2022-10-16T07:51:58;18.40;75.50
3548;DHT22;1788;49.400;11.092;2022-10-16T07:54:26;18.40;75.60
3548;DHT22;1788;49.400;11.092;2022-10-16T07:56:52;18.40;75.60
3548;DHT22;1788;49.400;11.092;2022-10-16T07:59:20;18.40;75.60
3548;DHT22;1788;49.400;11.092;2022-10-16T08:01:48;18.40;75.60
3548;DHT22;1788;49.400;11.092;2022-10-16T08:04:13;18.40;75.50
3548;DHT22;1788;49.400;11.092;2022-10-16T08:06:40;18.40;75.50
3548;DHT22;1788;49.400;11.092;2022-10-16T08:09:07;18.40;75.50
3548;DHT22;1788;49.400;11.092;2022-10-16T08:11:33;18.40;75.40
3548;DHT22;1788;49.400;11.092;2022-10-16T08:13:59;18.50;75.40
3548;DHT22;1788;49.400;11.092;2022-10-16T08:16:26;18.50;75.40
3548;DHT22;1788;49.400;11.092;2022-10-16T08:18:53;18.60;75.50
3548;DHT22;1788;49.400;11.092;2022-10-16T08:21:20;18.70;75.50
3548;DHT22;1788;49.400;11.092;2022-10-16T08:23:47;18.70;75.50
3548;DHT22;1788;49.400;11.092;2022-10-16T08:26:13;18.80;75.60
3548;DHT22;1788;49.400;11.092;2022-10-16T08:28:40;18.80;75.40
3548;DHT22;1788;49.400;11.092;2022-10-16T08:33:33;18.90;75.10
3548;DHT22;1788;49.400;11.092;2022-10-16T08:36:01;19.10;75.00
3548;DHT22;1788;49.400;11.092;2022-10-16T08:38:27;19.00;74.80
3548;DHT22;1788;49.400;11.092;2022-10-16T08:40:57;19.20;74.50
3548;DHT22;1788;49.400;11.092;2022-10-16T08:43:24;19.20;74.50
3548;DHT22;1788;49.400;11.092;2022-10-16T08:48:16;19.30;74.30
3548;DHT22;1788;49.400;11.092;2022-10-16T08:50:41;19.40;74.20
3548;DHT22;1788;49.400;11.092;2022-10-16T08:53:11;19.50;74.00
3548;DHT22;1788;49.400;11.092;2022-10-16T08:55:38;19.50;74.00
3548;DHT22;1788;49.400;11.092;2022-10-16T08:58:05;19.60;73.70
3548;DHT22;1788;49.400;11.092;2022-10-16T09:00:30;19.60;73.60
3548;DHT22;1788;49.400;11.092;2022-10-16T09:05:28;19.70;73.40
3548;DHT22;1788;49.400;11.092;2022-10-16T09:10:20;19.90;73.00
3548;DHT22;1788;49.400;11.092;2022-10-16T09:12:46;20.00;72.80
3548;DHT22;1788;49.400;11.092;2022-10-16T09:17:37;20.10;72.20
3548;DHT22;1788;49.400;11.092;2022-10-16T09:22:29;20.20;71.60
3548;DHT22;1788;49.400;11.092;2022-10-16T09:24:57;20.20;71.40
3548;DHT22;1788;49.400;11.092;2022-10-16T09:27:22;20.20;71.20
3548;DHT22;1788;49.400;11.092;2022-10-16T09:29:49;20.30;71.00
3548;DHT22;1788;49.400;11.092;2022-10-16T09:32:18;20.30;70.40
3548;DHT22;1788;49.400;11.092;2022-10-16T09:37:12;20.20;70.20
3548;DHT22;1788;49.400;11.092;2022-10-16T09:42:03;20.20;70.20
3548;DHT22;1788;49.400;11.092;2022-10-16T09:44:30;20.20;70.30
3548;DHT22;1788;49.400;11.092;2022-10-16T09:49:25;20.00;70.30
3548;DHT22;1788;49.400;11.092;2022-10-16T09:51:51;20.00;70.30
3548;DHT22;1788;49.400;11.092;2022-10-16T09:54:19;20.00;70.50
3548;DHT22;1788;49.400;11.092;2022-10-16T09:56:45;19.90;70.40
3548;DHT22;1788;49.400;11.092;2022-10-16T09:59:12;20.00;70.60
3548;DHT22;1788;49.400;11.092;2022-10-16T10:04:06;20.00;70.90
3548;DHT22;1788;49.400;11.092;2022-10-16T10:13:52;20.30;70.90
3548;DHT22;1788;49.400;11.092;2022-10-16T10:18:57;20.40;70.50
3548;DHT22;1788;49.400;11.092;2022-10-16T10:21:16;20.50;70.40
3548;DHT22;1788;49.400;11.092;2022-10-16T10:23:42;20.60;70.30
3548;DHT22;1788;49.400;11.092;2022-10-16T10:33:31;21.00;69.20
3548;DHT22;1788;49.400;11.092;2022-10-16T10:36:01;21.00;68.90
3548;DHT22;1788;49.400;11.092;2022-10-16T10:38:25;21.10;68.90
3548;DHT22;1788;49.400;11.092;2022-10-16T10:40:51;21.20;69.00
3548;DHT22;1788;49.400;11.092;2022-10-16T10:50:39;21.60;68.10
3548;DHT22;1788;49.400;11.092;2022-10-16T11:00:28;21.90;67.40
3548;DHT22;1788;49.400;11.092;2022-10-16T11:15:11;22.10;66.30
3548;DHT22;1788;49.400;11.092;2022-10-16T11:17:35;22.00;66.20
3548;DHT22;1788;49.400;11.092;2022-10-16T11:20:03;22.10;66.30
3548;DHT22;1788;49.400;11.092;2022-10-16T11:22:29;22.10;66.20
3548;DHT22;1788;49.400;11.092;2022-10-16T11:27:25;22.10;66.10
3548;DHT22;1788;49.400;11.092;2022-10-16T11:39:33;22.30;65.90
3548;DHT22;1788;49.400;11.092;2022-10-16T11:49:22;23.00;65.10
3548;DHT22;1788;49.400;11.092;2022-10-16T11:51:49;23.00;65.10
3548;DHT22;1788;49.400;11.092;2022-10-16T11:54:19;23.50;64.10
3548;DHT22;1788;49.400;11.092;2022-10-16T11:56:42;23.50;64.10
3548;DHT22;1788;49.400;11.092;2022-10-16T12:01:38;24.00;63.30
3548;DHT22;1788;49.400;11.092;2022-10-16T12:08:55;24.60;61.70
3548;DHT22;1788;49.400;11.092;2022-10-16T12:11:23;24.80;61.50
3548;DHT22;1788;49.400;11.092;2022-10-16T12:13:48;24.80;61.20
3548;DHT22;1788;49.400;11.092;2022-10-16T12:18:43;25.30;60.10
3548;DHT22;1788;49.400;11.092;2022-10-16T12:21:09;25.30;60.00
3548;DHT22;1788;49.400;11.092;2022-10-16T12:23:37;27.00;58.00
3548;DHT22;1788;49.400;11.092;2022-10-16T12:26:03;27.00;57.90
3548;DHT22;1788;49.400;11.092;2022-10-16T12:28:31;28.20;55.00
3548;DHT22;1788;49.400;11.092;2022-10-16T12:30:58;28.20;54.90
3548;DHT22;1788;49.400;11.092;2022-10-16T12:33:25;28.60;54.10
3548;DHT22;1788;49.400;11.092;2022-10-16T12:35:50;28.70;53.90
3548;DHT22;1788;49.400;11.092;2022-10-16T12:38:18;28.90;53.30
3548;DHT22;1788;49.400;11.092;2022-10-16T12:40:44;28.40;53.40
3548;DHT22;1788;49.400;11.092;2022-10-16T12:43:11;27.90;54.00
3548;DHT22;1788;49.400;11.092;2022-10-16T12:45:37;27.30;54.50
3548;DHT22;1788;49.400;11.092;2022-10-16T12:48:04;26.90;55.10
3548;DHT22;1788;49.400;11.092;2022-10-16T12:52:57;26.40;55.90
3548;DHT22;1788;49.400;11.092;2022-10-16T12:55:24;26.10;56.10
3548;DHT22;1788;49.400;11.092;2022-10-16T13:05:14;25.60;56.50
3548;DHT22;1788;49.400;11.092;2022-10-16T13:07:42;25.60;56.50
3548;DHT22;1788;49.400;11.092;2022-10-16T13:29:40;28.00;52.30
3548;DHT22;1788;49.400;11.092;2022-10-16T13:32:07;27.80;52.30
3548;DHT22;1788;49.400;11.092;2022-10-16T13:34:41;27.60;52.50
3548;DHT22;1788;49.400;11.092;2022-10-16T13:37:00;27.30;52.70
3548;DHT22;1788;49.400;11.092;2022-10-16T13:39:27;27.20;53.10
3548;DHT22;1788;49.400;11.092;2022-10-16T13:44:20;29.80;49.80
3548;DHT22;1788;49.400;11.092;2022-10-16T13:46:47;29.70;49.70
3548;DHT22;1788;49.400;11.092;2022-10-16T13:49:15;31.30;47.50
3548;DHT22;1788;49.400;11.092;2022-10-16T13:51:41;31.30;47.50
3548;DHT22;1788;49.400;11.092;2022-10-16T13:54:09;32.00;46.40
3548;DHT22;1788;49.400;11.092;2022-10-16T13:56:34;32.80;45.60
3548;DHT22;1788;49.400;11.092;2022-10-16T13:59:02;33.50;44.70
3548;DHT22;1788;49.400;11.092;2022-10-16T14:01:31;34.30;43.20
3548;DHT22;1788;49.400;11.092;2022-10-16T14:06:23;34.50;42.70
3548;DHT22;1788;49.400;11.092;2022-10-16T14:16:16;35.20;41.30
3548;DHT22;1788;49.400;11.092;2022-10-16T14:18:38;35.10;41.20
3548;DHT22;1788;49.400;11.092;2022-10-16T14:28:25;34.20;41.50
3548;DHT22;1788;49.400;11.092;2022-10-16T14:35:45;34.00;41.30
3548;DHT22;1788;49.400;11.092;2022-10-16T14:40:45;34.00;41.00
3548;DHT22;1788;49.400;11.092;2022-10-16T14:43:05;33.40;41.40
3548;DHT22;1788;49.400;11.092;2022-10-16T14:45:33;32.30;42.50
3548;DHT22;1788;49.400;11.092;2022-10-16T14:50:27;30.90;43.70
3548;DHT22;1788;49.400;11.092;2022-10-16T14:52:53;30.90;43.50
3548;DHT22;1788;49.400;11.092;2022-10-16T14:55:20;30.30;44.10
3548;DHT22;1788;49.400;11.092;2022-10-16T14:57:46;29.90;44.60
3548;DHT22;1788;49.400;11.092;2022-10-16T15:00:15;29.70;44.90
3548;DHT22;1788;49.400;11.092;2022-10-16T15:02:40;29.30;45.40
3548;DHT22;1788;49.400;11.092;2022-10-16T15:07:34;28.60;46.30
3548;DHT22;1788;49.400;11.092;2022-10-16T15:10:01;28.60;46.30
3548;DHT22;1788;49.400;11.092;2022-10-16T15:12:28;28.20;46.70
3548;DHT22;1788;49.400;11.092;2022-10-16T15:14:54;27.80;47.30
3548;DHT22;1788;49.400;11.092;2022-10-16T15:17:21;27.40;47.80
3548;DHT22;1788;49.400;11.092;2022-10-16T15:19:48;26.60;49.00
3548;DHT22;1788;49.400;11.092;2022-10-16T15:22:15;26.60;49.00
3548;DHT22;1788;49.400;11.092;2022-10-16T15:24:42;26.30;49.60
3548;DHT22;1788;49.400;11.092;2022-10-16T15:27:08;26.00;50.20
3548;DHT22;1788;49.400;11.092;2022-10-16T15:29:35;25.70;50.60
3548;DHT22;1788;49.400;11.092;2022-10-16T15:32:02;25.20;51.50
3548;DHT22;1788;49.400;11.092;2022-10-16T15:34:29;25.20;51.50
3548;DHT22;1788;49.400;11.092;2022-10-16T15:36:56;24.80;52.30
3548;DHT22;1788;49.400;11.092;2022-10-16T15:39:23;24.80;52.30
3548;DHT22;1788;49.400;11.092;2022-10-16T15:41:49;24.60;52.70
3548;DHT22;1788;49.400;11.092;2022-10-16T15:44:16;24.40;53.10
3548;DHT22;1788;49.400;11.092;2022-10-16T15:46:43;24.30;53.60
3548;DHT22;1788;49.400;11.092;2022-10-16T15:49:11;24.00;54.50
3548;DHT22;1788;49.400;11.092;2022-10-16T15:54:05;23.80;54.90
3548;DHT22;1788;49.400;11.092;2022-10-16T15:56:32;23.70;55.20
3548;DHT22;1788;49.400;11.092;2022-10-16T15:58:59;23.50;55.50
3548;DHT22;1788;49.400;11.092;2022-10-16T16:01:26;23.30;56.20
3548;DHT22;1788;49.400;11.092;2022-10-16T16:03:53;23.20;56.20
3548;DHT22;1788;49.400;11.092;2022-10-16T16:06:20;23.00;56.90
3548;DHT22;1788;49.400;11.092;2022-10-16T16:08:46;22.90;56.80
3548;DHT22;1788;49.400;11.092;2022-10-16T16:11:14;22.80;57.30
3548;DHT22;1788;49.400;11.092;2022-10-16T16:13:42;22.70;57.20
3548;DHT22;1788;49.400;11.092;2022-10-16T16:16:09;22.70;57.50
3548;DHT22;1788;49.400;11.092;2022-10-16T16:18:35;22.60;57.60
3548;DHT22;1788;49.400;11.092;2022-10-16T16:21:02;22.60;57.90
3548;DHT22;1788;49.400;11.092;2022-10-16T16:23:29;22.40;58.60
3548;DHT22;1788;49.400;11.092;2022-10-16T16:28:23;22.30;58.70
3548;DHT22;1788;49.400;11.092;2022-10-16T16:30:50;22.30;58.70
3548;DHT22;1788;49.400;11.092;2022-10-16T16:33:16;22.20;58.90
3548;DHT22;1788;49.400;11.092;2022-10-16T16:35:43;22.20;59.10
3548;DHT22;1788;49.400;11.092;2022-10-16T16:38:10;22.00;59.20
3548;DHT22;1788;49.400;11.092;2022-10-16T16:40:37;22.00;59.50
3548;DHT22;1788;49.400;11.092;2022-10-16T16:43:03;22.00;59.70
3548;DHT22;1788;49.400;11.092;2022-10-16T16:45:30;21.90;59.80
3548;DHT22;1788;49.400;11.092;2022-10-16T16:47:56;21.80;59.90
3548;DHT22;1788;49.400;11.092;2022-10-16T16:50:23;21.80;60.00
3548;DHT22;1788;49.400;11.092;2022-10-16T16:52:50;21.80;60.30
3548;DHT22;1788;49.400;11.092;2022-10-16T16:55:17;21.80;60.60
3548;DHT22;1788;49.400;11.092;2022-10-16T16:57:44;21.70;60.70
3548;DHT22;1788;49.400;11.092;2022-10-16T17:00:11;21.60;61.10
3548;DHT22;1788;49.400;11.092;2022-10-16T17:02:38;21.60;61.00
3548;DHT22;1788;49.400;11.092;2022-10-16T17:05:05;21.60;61.20
3548;DHT22;1788;49.400;11.092;2022-10-16T17:07:32;21.60;61.40
3548;DHT22;1788;49.400;11.092;2022-10-16T17:09:58;21.50;61.60
3548;DHT22;1788;49.400;11.092;2022-10-16T17:12:24;21.50;61.80
3548;DHT22;1788;49.400;11.092;2022-10-16T17:14:51;21.40;62.00
3548;DHT22;1788;49.400;11.092;2022-10-16T17:17:18;21.40;62.40
3548;DHT22;1788;49.400;11.092;2022-10-16T17:19:44;21.30;62.40
3548;DHT22;1788;49.400;11.092;2022-10-16T17:22:11;21.30;62.60
3548;DHT22;1788;49.400;11.092;2022-10-16T17:24:37;21.20;62.70
3548;DHT22;1788;49.400;11.092;2022-10-16T17:27:04;21.20;62.80
3548;DHT22;1788;49.400;11.092;2022-10-16T17:29:31;21.20;63.00
3548;DHT22;1788;49.400;11.092;2022-10-16T17:31:57;21.10;62.90
3548;DHT22;1788;49.400;11.092;2022-10-16T17:34:24;21.10;63.10
3548;DHT22;1788;49.400;11.092;2022-10-16T17:36:50;21.00;63.10
3548;DHT22;1788;49.400;11.092;2022-10-16T17:39:18;21.00;63.40
3548;DHT22;1788;49.400;11.092;2022-10-16T17:41:45;20.90;63.30
3548;DHT22;1788;49.400;11.092;2022-10-16T17:44:11;21.00;63.50
3548;DHT22;1788;49.400;11.092;2022-10-16T17:46:38;20.90;63.50
3548;DHT22;1788;49.400;11.092;2022-10-16T17:49:04;20.90;63.50
3548;DHT22;1788;49.400;11.092;2022-10-16T17:51:31;20.90;63.60
3548;DHT22;1788;49.400;11.092;2022-10-16T17:53:58;20.90;63.70
3548;DHT22;1788;49.400;11.092;2022-10-16T17:56:24;20.90;63.70
3548;DHT22;1788;49.400;11.092;2022-10-16T17:58:52;20.90;63.80
3548;DHT22;1788;49.400;11.092;2022-10-16T18:01:18;20.80;63.70
3548;DHT22;1788;49.400;11.092;2022-10-16T18:03:48;20.80;63.80
3548;DHT22;1788;49.400;11.092;2022-10-16T18:06:11;20.80;63.90
3548;DHT22;1788;49.400;11.092;2022-10-16T18:08:37;20.80;64.00
3548;DHT22;1788;49.400;11.092;2022-10-16T18:11:04;20.80;64.10
3548;DHT22;1788;49.400;11.092;2022-10-16T18:13:30;20.80;64.20
3548;DHT22;1788;49.400;11.092;2022-10-16T18:18:24;20.70;64.40
3548;DHT22;1788;49.400;11.092;2022-10-16T18:23:18;20.60;64.50
3548;DHT22;1788;49.400;11.092;2022-10-16T18:28:12;20.70;64.80
3548;DHT22;1788;49.400;11.092;2022-10-16T18:30:38;20.60;64.80
3548;DHT22;1788;49.400;11.092;2022-10-16T18:33:05;20.60;64.90
3548;DHT22;1788;49.400;11.092;2022-10-16T18:35:34;20.60;65.00
3548;DHT22;1788;49.400;11.092;2022-10-16T18:37:58;20.60;65.00
3548;DHT22;1788;49.400;11.092;2022-10-16T18:40:25;20.60;65.10
3548;DHT22;1788;49.400;11.092;2022-10-16T18:42:51;20.60;65.20
3548;DHT22;1788;49.400;11.092;2022-10-16T18:45:18;20.50;65.20
3548;DHT22;1788;49.400;11.092;2022-10-16T18:47:45;20.50;65.40
3548;DHT22;1788;49.400;11.092;2022-10-16T18:50:12;20.50;65.40
3548;DHT22;1788;49.400;11.092;2022-10-16T18:52:45;20.50;65.60
3548;DHT22;1788;49.400;11.092;2022-10-16T18:55:07;20.50;65.60
3548;DHT22;1788;49.400;11.092;2022-10-16T18:57:33;20.50;65.60
3548;DHT22;1788;49.400;11.092;2022-10-16T19:00:00;20.50;65.70
3548;DHT22;1788;49.400;11.092;2022-10-16T19:02:26;20.50;65.80
3548;DHT22;1788;49.400;11.092;2022-10-16T19:04:53;20.50;65.80
3548;DHT22;1788;49.400;11.092;2022-10-16T19:07:20;20.50;65.80
3548;DHT22;1788;49.400;11.092;2022-10-16T19:09:46;20.50;65.80
3548;DHT22;1788;49.400;11.092;2022-10-16T19:12:14;20.50;65.90
3548;DHT22;1788;49.400;11.092;2022-10-16T19:14:40;20.40;65.80
3548;DHT22;1788;49.400;11.092;2022-10-16T19:17:07;20.40;65.90
3548;DHT22;1788;49.400;11.092;2022-10-16T19:19:34;20.40;65.90
3548;DHT22;1788;49.400;11.092;2022-10-16T19:22:01;20.40;66.70
3548;DHT22;1788;49.400;11.092;2022-10-16T19:24:28;20.30;66.00
3548;DHT22;1788;49.400;11.092;2022-10-16T19:26:54;20.40;66.20
3548;DHT22;1788;49.400;11.092;2022-10-16T19:29:21;20.30;66.20
3548;DHT22;1788;49.400;11.092;2022-10-16T19:31:47;20.30;66.20
3548;DHT22;1788;49.400;11.092;2022-10-16T19:34:14;20.20;66.10